IBE0303 LEMD-MMMX
Flight info
| Callsign | IBE0303 |
|---|---|
| Flight time | N/A |
| Altitude | 34000 |
| Route | BARD7L BARDI RIVRO VIS BANAL 42N020W 42N030W 41N040W 39N050W 35N060W BALOO FLAMO JIMAC M327 SUMRS A699 PBI CYY SHAQQ Y240 SNAKR IRDOV UM580 RIBET UT101 ENAGA ENAG3B |
| Aircraft | A346/H-SDE2E3FGHIJ3J4J5M1RWXYZ/LB1D1 |
Departure
| Time | 2026-05-08 08:48 |
|---|---|
| Airport | Adolfo Suárez Madrid–Barajas Airport (LEMD) |
Arrival
| Time | N/A |
|---|---|
| Airport | Mexico City Benito Juárez International Airport (MMMX) |
| Time | Latitude | Longitude | Altitude | Speed | Heading |
|---|---|---|---|---|---|
| 2026-05-08 08:18 | 40.49356 | -3.56880 | 1984 ft | 0 kts | 90° |
| 2026-05-08 08:39 | 40.49356 | -3.56891 | 1980 ft | 0 kts | 90° |
| 2026-05-08 08:39 | 40.49355 | -3.56924 | 1982 ft | 0 kts | 90° |
| 2026-05-08 08:39 | 40.49355 | -3.56959 | 1985 ft | 0 kts | 90° |
| 2026-05-08 08:39 | 40.49355 | -3.56993 | 1986 ft | 1 kts | 90° |
| 2026-05-08 08:40 | 40.49358 | -3.57023 | 1985 ft | 1 kts | 112° |
| 2026-05-08 08:40 | 40.49368 | -3.57037 | 1985 ft | 0 kts | 149° |
| 2026-05-08 08:43 | 40.49367 | -3.57037 | 1985 ft | 1 kts | 150° |
| 2026-05-08 08:43 | 40.49346 | -3.57023 | 1985 ft | 7 kts | 159° |
| 2026-05-08 08:44 | 40.49299 | -3.57039 | 1990 ft | 7 kts | 230° |
| 2026-05-08 08:44 | 40.49275 | -3.57076 | 1990 ft | 4 kts | 226° |
| 2026-05-08 08:44 | 40.49243 | -3.57101 | 1989 ft | 7 kts | 198° |
| 2026-05-08 08:44 | 40.49194 | -3.57141 | 1990 ft | 9 kts | 233° |
| 2026-05-08 08:45 | 40.49180 | -3.57222 | 1992 ft | 9 kts | 271° |
| 2026-05-08 08:45 | 40.49180 | -3.57233 | 1992 ft | 0 kts | 271° |
| 2026-05-08 08:46 | 40.49180 | -3.57236 | 1992 ft | 2 kts | 271° |
| 2026-05-08 08:46 | 40.49181 | -3.57303 | 1991 ft | 9 kts | 271° |
| 2026-05-08 08:46 | 40.49183 | -3.57381 | 1992 ft | 8 kts | 273° |
| 2026-05-08 08:46 | 40.49209 | -3.57441 | 1994 ft | 8 kts | 326° |
| 2026-05-08 08:47 | 40.49271 | -3.57455 | 1993 ft | 3 kts | 0° |
| 2026-05-08 08:47 | 40.49273 | -3.57455 | 1993 ft | 4 kts | 0° |
| 2026-05-08 08:47 | 40.49511 | -3.57455 | 1994 ft | 65 kts | 360° |
| 2026-05-08 08:47 | 40.50158 | -3.57459 | 1996 ft | 120 kts | 360° |
| 2026-05-08 08:48 | 40.51157 | -3.57466 | 2002 ft | 165 kts | 359° |
| 2026-05-08 08:48 | 40.52434 | -3.57479 | 2090 ft | 195 kts | 1° |
| 2026-05-08 08:48 | 40.53828 | -3.57484 | 2513 ft | 204 kts | 0° |
| 2026-05-08 08:48 | 40.55288 | -3.57598 | 2922 ft | 217 kts | 346° |
| 2026-05-08 08:49 | 40.56585 | -3.58664 | 3340 ft | 230 kts | 308° |
| 2026-05-08 08:49 | 40.57248 | -3.60625 | 3784 ft | 241 kts | 284° |
| 2026-05-08 08:49 | 40.57937 | -3.62687 | 4154 ft | 255 kts | 309° |
| 2026-05-08 08:49 | 40.59340 | -3.64167 | 4613 ft | 266 kts | 331° |
| 2026-05-08 08:50 | 40.60991 | -3.65314 | 4950 ft | 276 kts | 330° |
| 2026-05-08 08:50 | 40.62654 | -3.66652 | 5258 ft | 284 kts | 323° |
| 2026-05-08 08:50 | 40.63939 | -3.68531 | 6012 ft | 271 kts | 289° |
| 2026-05-08 08:50 | 40.64287 | -3.70907 | 6708 ft | 265 kts | 267° |
| 2026-05-08 08:51 | 40.64216 | -3.73374 | 7104 ft | 272 kts | 263° |
| 2026-05-08 08:51 | 40.64089 | -3.75873 | 7335 ft | 274 kts | 263° |
| 2026-05-08 08:51 | 40.63982 | -3.78395 | 7598 ft | 276 kts | 263° |
| 2026-05-08 08:51 | 40.63898 | -3.80926 | 7839 ft | 277 kts | 264° |
| 2026-05-08 08:52 | 40.63833 | -3.83472 | 8108 ft | 278 kts | 264° |
| 2026-05-08 08:52 | 40.63777 | -3.86035 | 8360 ft | 280 kts | 264° |
| 2026-05-08 08:52 | 40.63727 | -3.88612 | 8618 ft | 281 kts | 264° |
| 2026-05-08 08:52 | 40.63680 | -3.91164 | 8872 ft | 282 kts | 264° |
| 2026-05-08 08:53 | 40.63634 | -3.93763 | 9147 ft | 284 kts | 264° |
| 2026-05-08 08:53 | 40.63590 | -3.96373 | 9408 ft | 286 kts | 264° |
| 2026-05-08 08:53 | 40.63546 | -3.99001 | 9681 ft | 288 kts | 265° |
| 2026-05-08 08:53 | 40.63842 | -4.01641 | 9910 ft | 297 kts | 284° |
| 2026-05-08 08:54 | 40.64596 | -4.04205 | 10216 ft | 306 kts | 289° |
| 2026-05-08 08:54 | 40.65473 | -4.06827 | 10521 ft | 318 kts | 290° |
| 2026-05-08 08:54 | 40.66394 | -4.09529 | 10889 ft | 326 kts | 290° |
| 2026-05-08 08:54 | 40.67335 | -4.12289 | 11351 ft | 334 kts | 290° |
| 2026-05-08 08:55 | 40.68294 | -4.15116 | 11798 ft | 341 kts | 290° |
| 2026-05-08 08:55 | 40.69268 | -4.18005 | 12278 ft | 348 kts | 290° |
| 2026-05-08 08:55 | 40.70258 | -4.20966 | 12753 ft | 355 kts | 290° |
| 2026-05-08 08:55 | 40.71241 | -4.23995 | 13233 ft | 361 kts | 285° |
| 2026-05-08 08:56 | 40.71669 | -4.27237 | 13688 ft | 360 kts | 266° |
| 2026-05-08 08:56 | 40.71522 | -4.30588 | 13978 ft | 371 kts | 262° |
| 2026-05-08 08:56 | 40.71314 | -4.34033 | 14207 ft | 383 kts | 262° |
| 2026-05-08 08:56 | 40.71099 | -4.37545 | 14561 ft | 391 kts | 262° |
| 2026-05-08 08:57 | 40.70881 | -4.41182 | 15118 ft | 393 kts | 262° |
| 2026-05-08 08:57 | 40.70669 | -4.44738 | 15656 ft | 396 kts | 262° |
| 2026-05-08 08:57 | 40.70451 | -4.48428 | 16169 ft | 399 kts | 262° |
| 2026-05-08 08:57 | 40.70235 | -4.52055 | 16671 ft | 403 kts | 262° |
| 2026-05-08 08:58 | 40.70015 | -4.55765 | 17194 ft | 406 kts | 262° |
| 2026-05-08 08:58 | 40.69792 | -4.59498 | 17724 ft | 410 kts | 262° |
| 2026-05-08 08:58 | 40.69567 | -4.63263 | 18224 ft | 413 kts | 262° |
| 2026-05-08 08:58 | 40.69339 | -4.67061 | 18630 ft | 417 kts | 262° |
| 2026-05-08 08:59 | 40.69110 | -4.70888 | 19053 ft | 420 kts | 262° |
| 2026-05-08 08:59 | 40.68877 | -4.74745 | 19484 ft | 423 kts | 262° |
| 2026-05-08 08:59 | 40.68640 | -4.78629 | 19896 ft | 425 kts | 262° |
| 2026-05-08 08:59 | 40.68401 | -4.82522 | 20302 ft | 428 kts | 262° |
| 2026-05-08 09:00 | 40.68159 | -4.86450 | 20739 ft | 431 kts | 262° |
| 2026-05-08 09:00 | 40.67914 | -4.90397 | 21194 ft | 433 kts | 262° |
| 2026-05-08 09:00 | 40.67665 | -4.94377 | 21629 ft | 436 kts | 262° |
| 2026-05-08 09:00 | 40.67415 | -4.98370 | 22072 ft | 439 kts | 262° |
| 2026-05-08 09:01 | 40.67164 | -5.02341 | 22488 ft | 441 kts | 262° |
| 2026-05-08 09:01 | 40.66906 | -5.06392 | 22915 ft | 444 kts | 262° |
| 2026-05-08 09:01 | 40.66646 | -5.10459 | 23344 ft | 447 kts | 262° |
| 2026-05-08 09:01 | 40.66382 | -5.14565 | 23708 ft | 450 kts | 262° |
| 2026-05-08 09:02 | 40.66117 | -5.18681 | 24029 ft | 453 kts | 262° |
| 2026-05-08 09:02 | 40.65846 | -5.22845 | 24342 ft | 456 kts | 261° |
| 2026-05-08 09:02 | 40.65574 | -5.27029 | 24657 ft | 459 kts | 261° |
| 2026-05-08 09:02 | 40.65298 | -5.31240 | 24971 ft | 462 kts | 261° |
| 2026-05-08 09:03 | 40.65018 | -5.35475 | 25273 ft | 465 kts | 261° |
| 2026-05-08 09:03 | 40.64735 | -5.39735 | 25584 ft | 468 kts | 261° |
| 2026-05-08 09:03 | 40.64449 | -5.44025 | 25889 ft | 471 kts | 261° |
| 2026-05-08 09:03 | 40.64158 | -5.48361 | 26188 ft | 474 kts | 261° |
| 2026-05-08 09:04 | 40.63865 | -5.52707 | 26479 ft | 477 kts | 261° |
| 2026-05-08 09:04 | 40.63569 | -5.57080 | 26764 ft | 480 kts | 261° |
| 2026-05-08 09:04 | 40.63269 | -5.61486 | 27055 ft | 483 kts | 261° |
| 2026-05-08 09:04 | 40.62965 | -5.65913 | 27344 ft | 486 kts | 261° |
| 2026-05-08 09:05 | 40.62658 | -5.70365 | 27630 ft | 489 kts | 261° |
| 2026-05-08 09:05 | 40.62347 | -5.74841 | 28005 ft | 490 kts | 261° |
| 2026-05-08 09:05 | 40.62037 | -5.79309 | 28441 ft | 489 kts | 261° |
| 2026-05-08 09:05 | 40.61724 | -5.83772 | 28853 ft | 489 kts | 261° |
| 2026-05-08 09:06 | 40.61409 | -5.88239 | 29231 ft | 490 kts | 261° |
| 2026-05-08 09:06 | 40.61092 | -5.92705 | 29597 ft | 490 kts | 261° |
| 2026-05-08 09:06 | 40.60772 | -5.97186 | 29969 ft | 491 kts | 261° |
| 2026-05-08 09:06 | 40.60450 | -6.01662 | 30298 ft | 491 kts | 260° |
| 2026-05-08 09:07 | 40.60128 | -6.06127 | 30702 ft | 489 kts | 260° |
| 2026-05-08 09:07 | 40.59806 | -6.10575 | 31148 ft | 485 kts | 260° |
| 2026-05-08 09:07 | 40.59489 | -6.14923 | 31611 ft | 482 kts | 260° |
| 2026-05-08 09:07 | 40.59168 | -6.19303 | 32074 ft | 478 kts | 260° |
| 2026-05-08 09:08 | 40.58846 | -6.23651 | 32498 ft | 475 kts | 260° |
| 2026-05-08 09:08 | 40.58523 | -6.27979 | 32852 ft | 474 kts | 260° |
| 2026-05-08 09:08 | 40.58280 | -6.32319 | 33115 ft | 479 kts | 267° |
| 2026-05-08 09:08 | 40.58774 | -6.36688 | 33267 ft | 490 kts | 283° |
| 2026-05-08 09:09 | 40.59875 | -6.40942 | 33563 ft | 489 kts | 282° |
| 2026-05-08 09:09 | 40.60522 | -6.45301 | 33829 ft | 481 kts | 271° |
| 2026-05-08 09:09 | 40.60828 | -6.54087 | 33929 ft | 481 kts | 269° |
| 2026-05-08 09:10 | 40.61353 | -6.62896 | 33935 ft | 482 kts | 272° |
| 2026-05-08 09:10 | 40.62121 | -6.71686 | 33931 ft | 483 kts | 272° |
| 2026-05-08 09:11 | 40.62934 | -6.80470 | 33943 ft | 483 kts | 273° |
| 2026-05-08 09:11 | 40.63747 | -6.89266 | 33932 ft | 482 kts | 273° |
| 2026-05-08 09:12 | 40.64545 | -6.98037 | 33934 ft | 482 kts | 273° |
| 2026-05-08 09:12 | 40.65328 | -7.06744 | 33935 ft | 481 kts | 273° |
| 2026-05-08 09:13 | 40.66115 | -7.15572 | 33939 ft | 481 kts | 273° |
| 2026-05-08 09:13 | 40.66885 | -7.24289 | 33935 ft | 481 kts | 273° |
| 2026-05-08 09:14 | 40.67651 | -7.33042 | 33922 ft | 481 kts | 273° |
| 2026-05-08 09:14 | 40.68412 | -7.41814 | 33924 ft | 481 kts | 272° |
| 2026-05-08 09:15 | 40.69165 | -7.50572 | 33928 ft | 480 kts | 272° |
| 2026-05-08 09:15 | 40.69914 | -7.59370 | 33929 ft | 480 kts | 272° |
| 2026-05-08 09:16 | 40.70654 | -7.68133 | 33934 ft | 480 kts | 272° |
| 2026-05-08 09:16 | 40.71385 | -7.76894 | 33941 ft | 479 kts | 272° |
| 2026-05-08 09:17 | 40.72178 | -7.85630 | 33942 ft | 480 kts | 275° |
| 2026-05-08 09:17 | 40.73197 | -7.92442 | 33940 ft | 482 kts | 280° |
| 2026-05-08 09:18 | 40.74971 | -8.01020 | 33933 ft | 482 kts | 282° |
| 2026-05-08 09:18 | 40.76801 | -8.09555 | 33935 ft | 482 kts | 282° |
| 2026-05-08 09:19 | 40.78606 | -8.18038 | 33934 ft | 482 kts | 282° |
| 2026-05-08 09:19 | 40.80409 | -8.26572 | 33928 ft | 482 kts | 282° |
| 2026-05-08 09:20 | 40.82203 | -8.35113 | 33920 ft | 481 kts | 282° |
| 2026-05-08 09:20 | 40.83988 | -8.43643 | 33907 ft | 481 kts | 282° |
| 2026-05-08 09:21 | 40.85766 | -8.52183 | 33901 ft | 481 kts | 282° |
| 2026-05-08 09:22 | 40.90748 | -8.76699 | 33808 ft | 435 kts | 282° |
| 2026-05-08 09:23 | 40.91570 | -8.80580 | 33869 ft | 440 kts | 282° |
| 2026-05-08 09:23 | 40.93211 | -8.88438 | 33901 ft | 452 kts | 281° |
| 2026-05-08 09:24 | 40.94885 | -8.96585 | 33911 ft | 464 kts | 281° |
| 2026-05-08 09:24 | 40.96591 | -9.04966 | 33925 ft | 477 kts | 281° |
| 2026-05-08 09:25 | 40.98323 | -9.13515 | 33923 ft | 481 kts | 281° |
| 2026-05-08 09:25 | 41.00054 | -9.22098 | 33915 ft | 482 kts | 281° |
| 2026-05-08 09:26 | 41.01779 | -9.30691 | 33919 ft | 482 kts | 281° |
| 2026-05-08 09:26 | 41.03495 | -9.39285 | 33918 ft | 481 kts | 281° |
| 2026-05-08 09:27 | 41.05202 | -9.47866 | 33914 ft | 480 kts | 281° |
| 2026-05-08 09:27 | 41.06891 | -9.56398 | 33903 ft | 480 kts | 281° |
| 2026-05-08 09:28 | 41.08580 | -9.64966 | 33904 ft | 479 kts | 281° |
| 2026-05-08 09:28 | 41.10259 | -9.73518 | 33908 ft | 479 kts | 281° |
| 2026-05-08 09:29 | 41.11660 | -9.80685 | 33904 ft | 478 kts | 281° |
| 2026-05-08 09:29 | 41.13327 | -9.89242 | 33903 ft | 478 kts | 281° |
| 2026-05-08 09:30 | 41.14974 | -9.97737 | 33903 ft | 478 kts | 281° |
| 2026-05-08 09:30 | 41.16624 | -10.06285 | 33901 ft | 477 kts | 281° |
| 2026-05-08 09:31 | 41.18270 | -10.14843 | 33904 ft | 477 kts | 281° |
| 2026-05-08 09:31 | 41.19909 | -10.23408 | 33893 ft | 477 kts | 281° |
| 2026-05-08 09:32 | 41.21540 | -10.31965 | 33897 ft | 477 kts | 281° |
| 2026-05-08 09:32 | 41.23152 | -10.40460 | 33897 ft | 477 kts | 281° |
| 2026-05-08 09:33 | 41.24769 | -10.49019 | 33892 ft | 476 kts | 281° |
| 2026-05-08 09:33 | 41.26378 | -10.57579 | 33886 ft | 477 kts | 281° |
| 2026-05-08 09:34 | 41.27983 | -10.66147 | 33890 ft | 477 kts | 281° |
| 2026-05-08 09:34 | 41.29581 | -10.74722 | 33890 ft | 477 kts | 280° |
| 2026-05-08 09:35 | 41.31172 | -10.83295 | 33882 ft | 477 kts | 280° |
| 2026-05-08 09:35 | 41.32747 | -10.91816 | 33885 ft | 476 kts | 280° |
| 2026-05-08 09:36 | 41.34325 | -11.00397 | 33879 ft | 476 kts | 280° |
| 2026-05-08 09:36 | 41.35895 | -11.08975 | 33877 ft | 476 kts | 280° |
| 2026-05-08 09:37 | 41.37460 | -11.17561 | 33871 ft | 476 kts | 280° |
| 2026-05-08 09:37 | 41.39019 | -11.26153 | 33877 ft | 476 kts | 280° |
| 2026-05-08 09:38 | 41.40570 | -11.34740 | 33870 ft | 476 kts | 280° |
| 2026-05-08 09:38 | 41.42116 | -11.43342 | 33871 ft | 476 kts | 280° |
| 2026-05-08 09:39 | 41.43654 | -11.51938 | 33868 ft | 476 kts | 280° |
| 2026-05-08 09:39 | 41.45187 | -11.60544 | 33871 ft | 476 kts | 280° |
| 2026-05-08 09:40 | 41.46714 | -11.69156 | 33859 ft | 476 kts | 280° |
| 2026-05-08 09:40 | 41.48233 | -11.77766 | 33860 ft | 476 kts | 280° |
| 2026-05-08 09:41 | 41.49747 | -11.86388 | 33857 ft | 476 kts | 280° |
| 2026-05-08 09:41 | 41.51253 | -11.95003 | 33855 ft | 476 kts | 280° |
| 2026-05-08 09:42 | 41.52753 | -12.03624 | 33852 ft | 476 kts | 280° |
| 2026-05-08 09:42 | 41.54245 | -12.12243 | 33851 ft | 476 kts | 279° |
| 2026-05-08 09:43 | 41.55731 | -12.20866 | 33852 ft | 476 kts | 279° |
| 2026-05-08 09:43 | 41.57201 | -12.29439 | 33847 ft | 476 kts | 279° |
| 2026-05-08 09:44 | 41.58675 | -12.38079 | 33846 ft | 476 kts | 279° |
| 2026-05-08 09:44 | 41.60144 | -12.46727 | 33844 ft | 476 kts | 279° |
| 2026-05-08 09:45 | 41.61604 | -12.55365 | 33837 ft | 476 kts | 279° |
| 2026-05-08 09:45 | 41.63057 | -12.64002 | 33845 ft | 476 kts | 279° |
| 2026-05-08 09:46 | 41.64504 | -12.72653 | 33832 ft | 475 kts | 279° |
| 2026-05-08 09:46 | 41.65934 | -12.81238 | 33838 ft | 475 kts | 279° |
| 2026-05-08 09:47 | 41.66999 | -12.87657 | 33832 ft | 475 kts | 279° |
| 2026-05-08 09:48 | 41.67525 | -12.90840 | 33829 ft | 475 kts | 279° |
| 2026-05-08 09:48 | 41.68948 | -12.99478 | 33831 ft | 475 kts | 279° |
| 2026-05-08 09:49 | 41.70365 | -13.08119 | 33824 ft | 475 kts | 279° |
| 2026-05-08 09:49 | 41.71776 | -13.16761 | 33821 ft | 474 kts | 279° |
| 2026-05-08 09:50 | 41.73171 | -13.25355 | 33828 ft | 474 kts | 279° |
| 2026-05-08 09:50 | 41.74565 | -13.33988 | 33822 ft | 474 kts | 279° |
| 2026-05-08 09:51 | 41.75919 | -13.42413 | 33822 ft | 473 kts | 279° |
| 2026-05-08 09:51 | 41.77300 | -13.51047 | 33822 ft | 473 kts | 279° |
| 2026-05-08 09:51 | 41.77984 | -13.55339 | 33820 ft | 0 kts | 279° |
| 2026-05-08 09:52 | 41.78505 | -13.59049 | 33664 ft | 427 kts | 278° |
| 2026-05-08 09:52 | 41.79134 | -13.62971 | 33773 ft | 431 kts | 279° |
| 2026-05-08 09:52 | 41.79668 | -13.66250 | 33796 ft | 436 kts | 279° |
| 2026-05-08 09:53 | 41.80923 | -13.74044 | 33816 ft | 448 kts | 279° |
| 2026-05-08 09:53 | 41.82236 | -13.82346 | 33816 ft | 461 kts | 279° |
| 2026-05-08 09:54 | 41.82828 | -13.86115 | 33817 ft | 466 kts | 279° |
| 2026-05-08 09:54 | 41.84170 | -13.94710 | 33813 ft | 472 kts | 279° |
| 2026-05-08 09:55 | 41.85513 | -14.03359 | 33812 ft | 473 kts | 279° |
| 2026-05-08 09:55 | 41.86838 | -14.11944 | 33811 ft | 472 kts | 279° |
| 2026-05-08 09:56 | 41.88172 | -14.20645 | 33809 ft | 472 kts | 279° |
| 2026-05-08 09:56 | 41.89490 | -14.29287 | 33802 ft | 472 kts | 279° |
| 2026-05-08 09:57 | 41.91455 | -14.42262 | 33800 ft | 472 kts | 279° |
| 2026-05-08 09:57 | 41.92760 | -14.50931 | 33801 ft | 472 kts | 279° |
| 2026-05-08 09:58 | 41.94060 | -14.59615 | 33796 ft | 472 kts | 279° |
| 2026-05-08 09:58 | 41.95349 | -14.68281 | 33795 ft | 472 kts | 279° |
| 2026-05-08 09:59 | 41.96624 | -14.76898 | 33791 ft | 473 kts | 279° |
| 2026-05-08 09:59 | 41.97901 | -14.85577 | 33792 ft | 473 kts | 279° |
| 2026-05-08 10:00 | 41.99167 | -14.94270 | 33792 ft | 473 kts | 278° |
| 2026-05-08 10:00 | 42.00013 | -15.03034 | 33785 ft | 471 kts | 272° |
| 2026-05-08 10:01 | 42.00275 | -15.11840 | 33793 ft | 470 kts | 269° |
| 2026-05-08 10:01 | 42.00444 | -15.20646 | 33792 ft | 470 kts | 269° |
| 2026-05-08 10:02 | 42.00611 | -15.29455 | 33790 ft | 470 kts | 269° |
| 2026-05-08 10:02 | 42.00774 | -15.38261 | 33789 ft | 470 kts | 269° |
| 2026-05-08 10:03 | 42.00931 | -15.47010 | 33786 ft | 470 kts | 269° |
| 2026-05-08 10:03 | 42.01083 | -15.55815 | 33785 ft | 470 kts | 269° |
| 2026-05-08 10:04 | 42.01227 | -15.64632 | 33788 ft | 471 kts | 269° |
| 2026-05-08 10:04 | 42.01364 | -15.73455 | 33788 ft | 471 kts | 269° |
| 2026-05-08 10:05 | 42.01494 | -15.82274 | 33785 ft | 471 kts | 269° |
| 2026-05-08 10:05 | 42.01619 | -15.91094 | 33781 ft | 471 kts | 269° |
| 2026-05-08 10:06 | 42.01736 | -15.99859 | 33776 ft | 470 kts | 269° |
| 2026-05-08 10:06 | 42.01848 | -16.08729 | 33778 ft | 471 kts | 269° |
| 2026-05-08 10:07 | 42.01953 | -16.17489 | 33781 ft | 470 kts | 269° |
| 2026-05-08 10:07 | 42.02051 | -16.26298 | 33781 ft | 470 kts | 269° |
| 2026-05-08 10:08 | 42.02142 | -16.35116 | 33777 ft | 471 kts | 269° |
| 2026-05-08 10:08 | 42.02227 | -16.43935 | 33781 ft | 471 kts | 269° |
| 2026-05-08 10:09 | 42.02305 | -16.52749 | 33777 ft | 470 kts | 269° |
| 2026-05-08 10:09 | 42.02376 | -16.61502 | 33779 ft | 470 kts | 269° |
| 2026-05-08 10:10 | 42.02441 | -16.70317 | 33774 ft | 470 kts | 269° |
| 2026-05-08 10:10 | 42.02498 | -16.79130 | 33777 ft | 470 kts | 269° |
| 2026-05-08 10:11 | 42.02549 | -16.87936 | 33773 ft | 470 kts | 269° |
| 2026-05-08 10:11 | 42.02593 | -16.96740 | 33775 ft | 470 kts | 269° |
| 2026-05-08 10:12 | 42.02631 | -17.05490 | 33781 ft | 470 kts | 268° |
| 2026-05-08 10:12 | 42.02662 | -17.14299 | 33777 ft | 470 kts | 268° |
| 2026-05-08 10:13 | 42.02686 | -17.23121 | 33773 ft | 470 kts | 268° |
| 2026-05-08 10:13 | 42.02703 | -17.31936 | 33770 ft | 470 kts | 268° |
| 2026-05-08 10:14 | 42.02714 | -17.40747 | 33778 ft | 470 kts | 268° |
| 2026-05-08 10:14 | 42.02717 | -17.49565 | 33778 ft | 470 kts | 268° |